createdAt,value
2018-12-17T00:00:06.398Z,96.23
2018-12-17T00:01:05.611Z,96.08
2018-12-17T00:02:05.585Z,95.97
2018-12-17T00:03:05.581Z,96.23
2018-12-17T00:04:05.564Z,96.23
2018-12-17T00:05:05.556Z,95.23
2018-12-17T00:06:05.585Z,95.23
2018-12-17T00:07:05.546Z,95.59
2018-12-17T00:08:15.773Z,96.12
2018-12-17T00:09:05.514Z,96.23
2018-12-17T00:10:05.510Z,96.23
2018-12-17T00:11:05.497Z,95.97
2018-12-17T00:12:05.534Z,96.01
2018-12-17T00:13:05.477Z,95.44
2018-12-17T00:14:05.463Z,95.70
2018-12-17T00:15:05.456Z,95.48
2018-12-17T00:16:05.457Z,95.91
2018-12-17T00:17:05.433Z,95.59
2018-12-17T00:18:05.651Z,95.48
2018-12-17T00:19:05.415Z,95.27
2018-12-17T00:20:05.408Z,95.17
2018-12-17T00:21:05.402Z,96.06
2018-12-17T00:22:05.384Z,96.23
2018-12-17T00:23:05.379Z,96.48
2018-12-17T00:24:05.402Z,96.06
2018-12-17T00:25:05.364Z,96.06
2018-12-17T00:26:05.345Z,96.27
2018-12-17T00:27:05.340Z,96.27
2018-12-17T00:28:08.315Z,96.48
2018-12-17T00:29:05.312Z,96.27
2018-12-17T00:30:05.640Z,96.06
2018-12-17T00:31:05.293Z,95.95
2018-12-17T00:32:05.282Z,95.74
2018-12-17T00:33:05.270Z,96.16
2018-12-17T00:34:05.265Z,96.27
2018-12-17T00:35:05.251Z,95.84
2018-12-17T00:36:05.666Z,95.95
2018-12-17T00:37:05.232Z,96.27
2018-12-17T00:38:05.225Z,95.95
2018-12-17T00:39:16.119Z,95.74
2018-12-17T00:40:05.199Z,96.16
2018-12-17T00:41:05.192Z,96.27
2018-12-17T00:42:05.196Z,96.16
2018-12-17T00:43:05.179Z,95.84
2018-12-17T00:44:05.162Z,96.16
2018-12-17T00:45:05.150Z,96.37
2018-12-17T00:46:05.143Z,96.37
2018-12-17T00:47:05.130Z,95.74
2018-12-17T00:48:05.144Z,95.63
2018-12-17T00:49:05.110Z,95.31
2018-12-17T00:50:05.102Z,96.16
2018-12-17T00:51:05.089Z,96.27
2018-12-17T00:52:05.154Z,95.84
2018-12-17T00:53:05.080Z,96.06
2018-12-17T00:54:05.106Z,95.53
2018-12-17T00:55:05.057Z,95.53
2018-12-17T00:56:05.039Z,95.89
2018-12-17T00:57:05.030Z,95.21
2018-12-17T00:58:05.021Z,95.10
2018-12-17T00:59:05.012Z,95.63
2018-12-17T01:00:05.040Z,95.63
2018-12-17T01:01:04.991Z,95.57
2018-12-17T01:02:04.978Z,95.36
2018-12-17T01:03:04.966Z,94.82
2018-12-17T01:04:04.952Z,95.15
2018-12-17T01:05:04.948Z,95.25
2018-12-17T01:06:05.725Z,95.25
2018-12-17T01:07:04.925Z,95.04
2018-12-17T01:08:04.914Z,95.57
2018-12-17T01:09:04.907Z,95.67
2018-12-17T01:10:15.572Z,95.19
2018-12-17T01:11:04.888Z,95.29
2018-12-17T01:12:05.211Z,95.19
2018-12-17T01:13:04.863Z,95.19
2018-12-17T01:14:04.856Z,95.23
2018-12-17T01:15:04.847Z,95.29
2018-12-17T01:16:04.841Z,95.12
2018-12-17T01:17:04.827Z,94.59
2018-12-17T01:18:04.855Z,95.02
2018-12-17T01:19:04.807Z,94.27
2018-12-17T01:20:04.795Z,94.70
2018-12-17T01:21:04.781Z,94.91
2018-12-17T01:22:04.776Z,94.91
2018-12-17T01:23:04.773Z,94.59
2018-12-17T01:24:05.208Z,95.12
2018-12-17T01:25:04.739Z,94.95
2018-12-17T01:26:04.732Z,94.74
2018-12-17T01:27:04.723Z,95.02
2018-12-17T01:28:04.711Z,94.85
2018-12-17T01:29:04.704Z,95.06
2018-12-17T01:30:04.710Z,95.06
2018-12-17T01:31:04.684Z,95.06
2018-12-17T01:32:04.675Z,94.81
2018-12-17T01:33:04.661Z,94.74
2018-12-17T01:34:04.648Z,94.95
2018-12-17T01:35:04.642Z,95.06
2018-12-17T01:36:04.679Z,94.74
2018-12-17T01:37:04.622Z,95.06
2018-12-17T01:38:04.613Z,95.06
2018-12-17T01:39:04.597Z,94.53
2018-12-17T01:40:04.591Z,94.32
2018-12-17T01:41:14.727Z,94.10
2018-12-17T01:42:04.575Z,94.21
2018-12-17T01:43:04.565Z,94.85
2018-12-17T01:44:04.550Z,94.32
2018-12-17T01:45:04.553Z,94.64
2018-12-17T01:46:04.529Z,94.32
2018-12-17T01:47:04.539Z,94.10
2018-12-17T01:48:04.521Z,93.99
2018-12-17T01:49:04.498Z,94.10
2018-12-17T01:50:04.491Z,94.04
2018-12-17T01:51:04.477Z,93.89
2018-12-17T01:52:04.469Z,93.82
2018-12-17T01:53:04.480Z,93.72
2018-12-17T01:54:04.448Z,93.29
2018-12-17T01:55:04.442Z,93.40
2018-12-17T01:56:04.430Z,93.51
2018-12-17T01:57:04.416Z,93.29
2018-12-17T01:58:04.405Z,93.40
2018-12-17T01:59:04.721Z,93.62
2018-12-17T02:00:04.392Z,93.72
2018-12-17T02:01:04.379Z,92.80
2018-12-17T02:02:04.370Z,92.91
2018-12-17T02:03:04.354Z,93.33
2018-12-17T02:04:04.351Z,93.66
2018-12-17T02:05:04.388Z,93.76
2018-12-17T02:06:04.326Z,92.97
2018-12-17T02:07:04.325Z,92.91
2018-12-17T02:08:04.310Z,93.51
2018-12-17T02:09:04.299Z,92.38
2018-12-17T02:10:04.290Z,93.12
2018-12-17T02:11:04.705Z,92.38
2018-12-17T02:12:14.374Z,92.59
2018-12-17T02:13:04.255Z,92.85
2018-12-17T02:14:04.245Z,93.02
2018-12-17T02:15:04.240Z,93.02
2018-12-17T02:16:04.232Z,93.38
2018-12-17T02:17:04.271Z,92.91
2018-12-17T02:18:04.206Z,92.70
2018-12-17T02:19:04.196Z,92.32
2018-12-17T02:20:04.191Z,92.95
2018-12-17T02:21:04.172Z,92.70
2018-12-17T02:22:04.172Z,92.91
2018-12-17T02:23:04.207Z,92.80
2018-12-17T02:24:04.190Z,93.33
2018-12-17T02:25:04.133Z,92.91
2018-12-17T02:26:04.136Z,93.02
2018-12-17T02:27:04.120Z,93.23
2018-12-17T02:28:04.103Z,93.44
2018-12-17T02:29:04.116Z,93.55
2018-12-17T02:30:04.083Z,92.80
2018-12-17T02:31:04.073Z,92.38
2018-12-17T02:32:04.072Z,92.59
2018-12-17T02:33:04.052Z,92.80
2018-12-17T02:34:04.053Z,92.27
2018-12-17T02:35:04.696Z,92.87
2018-12-17T02:36:04.021Z,93.12
2018-12-17T02:37:04.011Z,92.33
2018-12-17T02:38:04.013Z,92.27
2018-12-17T02:39:03.990Z,92.13
2018-12-17T02:40:03.983Z,92.06
2018-12-17T02:41:04.219Z,92.44
2018-12-17T02:42:03.961Z,91.85
2018-12-17T02:43:14.653Z,92.70
2018-12-17T02:44:03.945Z,92.06
2018-12-17T02:45:03.932Z,92.06
2018-12-17T02:46:03.923Z,91.74
2018-12-17T02:47:03.951Z,91.96
2018-12-17T02:48:03.910Z,92.38
2018-12-17T02:49:03.899Z,92.38
2018-12-17T02:50:03.885Z,91.74
2018-12-17T02:51:03.873Z,91.74
2018-12-17T02:52:03.902Z,92.38
2018-12-17T02:53:04.620Z,91.85
2018-12-17T02:54:03.842Z,91.63
2018-12-17T02:55:03.885Z,92.38
2018-12-17T02:56:03.819Z,91.74
2018-12-17T02:57:03.835Z,91.96
2018-12-17T02:58:03.800Z,91.96
2018-12-17T02:59:04.218Z,91.85
2018-12-17T03:00:03.779Z,91.96
2018-12-17T03:01:03.774Z,91.85
2018-12-17T03:02:03.758Z,91.42
2018-12-17T03:03:03.759Z,91.53
2018-12-17T03:04:03.742Z,91.74
2018-12-17T03:05:03.767Z,91.20
2018-12-17T03:06:03.718Z,91.31
2018-12-17T03:07:03.716Z,91.20
2018-12-17T03:08:03.700Z,91.00
2018-12-17T03:09:03.697Z,91.63
2018-12-17T03:10:03.681Z,91.85
2018-12-17T03:11:03.687Z,91.74
2018-12-17T03:12:03.663Z,91.46
2018-12-17T03:13:03.648Z,91.31
2018-12-17T03:14:14.100Z,91.53
2018-12-17T03:15:03.629Z,90.78
2018-12-17T03:16:03.618Z,90.36
2018-12-17T03:17:03.627Z,90.72
2018-12-17T03:18:03.598Z,90.14
2018-12-17T03:19:03.592Z,90.57
2018-12-17T03:20:03.576Z,90.14
2018-12-17T03:21:03.571Z,90.36
2018-12-17T03:22:03.563Z,90.14
2018-12-17T03:23:03.591Z,90.04
2018-12-17T03:24:03.539Z,90.14
2018-12-17T03:25:03.529Z,89.97
2018-12-17T03:26:03.519Z,89.08
2018-12-17T03:27:03.538Z,88.97
2018-12-17T03:28:03.494Z,89.97
2018-12-17T03:29:03.522Z,90.08
2018-12-17T03:30:03.476Z,90.19
2018-12-17T03:31:03.467Z,90.29
2018-12-17T03:32:03.461Z,90.19
2018-12-17T03:33:03.466Z,90.08
2018-12-17T03:34:03.439Z,90.29
2018-12-17T03:35:03.469Z,90.14
2018-12-17T03:36:03.421Z,89.97
2018-12-17T03:37:03.410Z,90.19
2018-12-17T03:38:03.398Z,89.93
2018-12-17T03:39:03.393Z,89.97
2018-12-17T03:40:03.376Z,90.04
2018-12-17T03:41:03.409Z,89.93
2018-12-17T03:42:03.359Z,89.40
2018-12-17T03:43:03.345Z,89.86
2018-12-17T03:44:03.338Z,89.76
2018-12-17T03:45:13.912Z,89.93
2018-12-17T03:46:03.319Z,90.04
2018-12-17T03:47:04.259Z,89.50
2018-12-17T03:48:03.299Z,88.55
2018-12-17T03:49:03.287Z,88.76
2018-12-17T03:50:03.280Z,88.97
2018-12-17T03:51:03.268Z,89.08
2018-12-17T03:52:03.255Z,88.65
2018-12-17T03:53:03.286Z,88.65
2018-12-17T03:54:03.242Z,88.44
2018-12-17T03:55:03.225Z,88.01
2018-12-17T03:56:03.215Z,88.23
2018-12-17T03:57:03.207Z,88.01
2018-12-17T03:58:03.193Z,87.95
2018-12-17T03:59:03.237Z,88.65
2018-12-17T04:00:03.173Z,88.65
2018-12-17T04:01:03.162Z,88.44
2018-12-17T04:02:03.153Z,88.01
2018-12-17T04:03:03.172Z,87.98
2018-12-17T04:04:03.136Z,88.01
2018-12-17T04:05:03.278Z,87.59
2018-12-17T04:06:03.117Z,87.66
2018-12-17T04:07:03.101Z,87.76
2018-12-17T04:08:03.093Z,87.76
2018-12-17T04:09:03.082Z,87.59
2018-12-17T04:10:03.072Z,87.70
2018-12-17T04:11:03.266Z,88.01
2018-12-17T04:12:03.054Z,87.55
2018-12-17T04:13:03.041Z,87.34
2018-12-17T04:14:03.033Z,87.80
2018-12-17T04:15:03.024Z,87.34
2018-12-17T04:16:13.300Z,87.34
2018-12-17T04:17:02.999Z,87.23
2018-12-17T04:18:02.989Z,87.12
2018-12-17T04:19:02.981Z,86.59
2018-12-17T04:20:03.047Z,86.49
2018-12-17T04:21:02.961Z,86.27
2018-12-17T04:22:03.002Z,86.06
2018-12-17T04:23:02.938Z,86.27
2018-12-17T04:24:02.933Z,86.80
2018-12-17T04:25:02.931Z,86.49
2018-12-17T04:26:03.040Z,86.80
2018-12-17T04:27:02.900Z,86.70
2018-12-17T04:28:03.291Z,86.49
2018-12-17T04:29:06.820Z,86.27
2018-12-17T04:30:02.869Z,86.38
2018-12-17T04:31:02.859Z,85.74
2018-12-17T04:32:02.852Z,86.27
2018-12-17T04:33:02.841Z,85.42
2018-12-17T04:34:02.887Z,85.28
2018-12-17T04:35:02.837Z,85.53
2018-12-17T04:36:02.817Z,85.06
2018-12-17T04:37:02.800Z,86.06
2018-12-17T04:38:02.793Z,85.49
2018-12-17T04:39:02.775Z,85.21
2018-12-17T04:40:02.803Z,84.96
2018-12-17T04:41:02.762Z,85.06
2018-12-17T04:42:02.755Z,85.28
2018-12-17T04:43:02.742Z,85.06
2018-12-17T04:44:02.728Z,85.17
2018-12-17T04:45:02.715Z,85.06
2018-12-17T04:46:02.757Z,84.68
2018-12-17T04:47:15.451Z,84.89
2018-12-17T04:48:02.691Z,85.31
2018-12-17T04:49:02.680Z,85.28
2018-12-17T04:50:02.666Z,85.53
2018-12-17T04:51:02.665Z,85.42
2018-12-17T04:52:02.685Z,85.21
2018-12-17T04:53:02.636Z,85.31
2018-12-17T04:54:02.638Z,85.85
2018-12-17T04:55:02.620Z,85.53
2018-12-17T04:56:02.605Z,86.70
2018-12-17T04:57:02.610Z,85.21
2018-12-17T04:58:02.798Z,85.21
2018-12-17T04:59:02.583Z,85.63
2018-12-17T05:00:02.567Z,85.53
2018-12-17T05:01:02.558Z,85.31
2018-12-17T05:02:02.549Z,85.21
2018-12-17T05:03:02.549Z,86.38
2018-12-17T05:04:02.795Z,85.74
2018-12-17T05:05:02.527Z,85.46
2018-12-17T05:06:02.507Z,85.74
2018-12-17T05:07:02.498Z,85.96
2018-12-17T05:08:02.492Z,85.68
2018-12-17T05:09:02.477Z,86.59
2018-12-17T05:10:02.485Z,85.99
2018-12-17T05:11:02.467Z,86.21
2018-12-17T05:12:02.454Z,85.85
2018-12-17T05:13:02.432Z,85.42
2018-12-17T05:14:02.426Z,85.35
2018-12-17T05:15:03.795Z,86.06
2018-12-17T05:16:02.792Z,86.06
2018-12-17T05:17:02.394Z,86.38
2018-12-17T05:18:12.329Z,85.46
2018-12-17T05:19:02.380Z,85.10
2018-12-17T05:20:02.362Z,85.53
2018-12-17T05:21:02.353Z,85.46
2018-12-17T05:22:02.377Z,85.31
2018-12-17T05:23:02.337Z,85.63
2018-12-17T05:24:02.323Z,84.93
2018-12-17T05:25:02.315Z,85.68
2018-12-17T05:26:02.314Z,85.25
2018-12-17T05:27:02.296Z,85.46
2018-12-17T05:28:02.326Z,85.14
2018-12-17T05:29:02.272Z,85.25
2018-12-17T05:30:02.262Z,85.61
2018-12-17T05:31:02.268Z,85.28
2018-12-17T05:32:02.244Z,84.93
2018-12-17T05:33:02.238Z,85.35
2018-12-17T05:34:02.269Z,85.25
2018-12-17T05:35:02.218Z,85.35
2018-12-17T05:36:02.199Z,84.93
2018-12-17T05:37:02.207Z,85.46
2018-12-17T05:38:02.184Z,85.25
2018-12-17T05:39:02.175Z,85.57
2018-12-17T05:40:02.242Z,84.89
2018-12-17T05:41:02.153Z,85.46
2018-12-17T05:42:02.147Z,85.35
2018-12-17T05:43:02.140Z,84.93
2018-12-17T05:44:02.119Z,84.61
2018-12-17T05:45:02.116Z,84.72
2018-12-17T05:46:02.798Z,84.89
2018-12-17T05:47:02.091Z,84.89
2018-12-17T05:48:02.143Z,84.57
2018-12-17T05:49:14.108Z,83.83
2018-12-17T05:50:02.059Z,83.83
2018-12-17T05:51:02.054Z,83.40
2018-12-17T05:52:02.375Z,83.83
2018-12-17T05:53:02.034Z,83.40
2018-12-17T05:54:02.030Z,83.40
2018-12-17T05:55:02.030Z,83.83
2018-12-17T05:56:02.000Z,83.36
2018-12-17T05:57:02.001Z,83.58
2018-12-17T05:58:02.007Z,83.69
2018-12-17T05:59:01.967Z,83.40
2018-12-17T06:00:01.961Z,83.61
2018-12-17T06:01:01.951Z,83.83
2018-12-17T06:02:01.951Z,83.61
2018-12-17T06:03:01.932Z,84.04
2018-12-17T06:04:02.014Z,83.04
2018-12-17T06:05:01.913Z,83.19
2018-12-17T06:06:01.901Z,84.68
2018-12-17T06:07:01.896Z,84.78
2018-12-17T06:08:01.890Z,84.68
2018-12-17T06:09:01.874Z,84.68
2018-12-17T06:10:02.318Z,84.57
2018-12-17T06:11:01.850Z,84.68
2018-12-17T06:12:01.843Z,84.57
2018-12-17T06:13:01.830Z,84.57
2018-12-17T06:14:01.829Z,84.14
2018-12-17T06:15:01.806Z,84.68
2018-12-17T06:16:01.847Z,84.39
2018-12-17T06:17:01.786Z,84.68
2018-12-17T06:18:01.795Z,83.40
2018-12-17T06:19:01.778Z,83.61
2018-12-17T06:20:12.020Z,84.36
2018-12-17T06:21:01.756Z,83.94
2018-12-17T06:22:01.873Z,83.94
2018-12-17T06:23:01.727Z,83.61
2018-12-17T06:24:01.714Z,83.83
2018-12-17T06:25:01.722Z,84.68
2018-12-17T06:26:01.699Z,84.68
2018-12-17T06:27:01.706Z,84.53
2018-12-17T06:28:01.746Z,84.68
2018-12-17T06:29:01.672Z,85.00
2018-12-17T06:30:01.720Z,85.31
2018-12-17T06:31:01.643Z,84.78
2018-12-17T06:32:01.637Z,84.14
2018-12-17T06:33:01.631Z,84.57
2018-12-17T06:34:01.721Z,84.36
2018-12-17T06:35:01.613Z,84.68
2018-12-17T06:36:01.598Z,84.42
2018-12-17T06:37:01.588Z,84.25
2018-12-17T06:38:01.667Z,84.78
2018-12-17T06:39:01.579Z,84.78
2018-12-17T06:40:01.844Z,84.64
2018-12-17T06:41:01.542Z,84.32
2018-12-17T06:42:01.538Z,84.36
2018-12-17T06:43:01.526Z,84.68
2018-12-17T06:44:01.519Z,84.14
2018-12-17T06:45:01.515Z,84.61
2018-12-17T06:46:01.547Z,84.68
2018-12-17T06:47:01.494Z,84.47
2018-12-17T06:48:01.474Z,85.10
2018-12-17T06:49:01.462Z,84.57
2018-12-17T06:50:01.454Z,84.36
2018-12-17T06:51:12.364Z,84.78
2018-12-17T06:52:01.430Z,84.68
2018-12-17T06:53:01.428Z,85.10
2018-12-17T06:54:01.414Z,85.25
2018-12-17T06:55:01.402Z,84.50
2018-12-17T06:56:01.397Z,85.31
2018-12-17T06:57:01.493Z,84.68
2018-12-17T06:58:01.376Z,84.14
2018-12-17T06:59:01.364Z,84.68
2018-12-17T07:00:01.399Z,85.00
2018-12-17T07:01:01.345Z,84.57
2018-12-17T07:02:01.332Z,84.14
2018-12-17T07:03:01.364Z,85.31
2018-12-17T07:04:01.316Z,85.42
2018-12-17T07:05:01.307Z,85.21
2018-12-17T07:06:01.290Z,85.74
2018-12-17T07:07:01.279Z,85.10
2018-12-17T07:08:01.271Z,85.74
2018-12-17T07:09:01.352Z,85.10
2018-12-17T07:10:01.254Z,84.78
2018-12-17T07:11:01.261Z,84.68
2018-12-17T07:12:01.238Z,84.57
2018-12-17T07:13:01.226Z,84.89
2018-12-17T07:14:01.214Z,84.78
2018-12-17T07:15:01.256Z,84.32
2018-12-17T07:16:01.195Z,84.32
2018-12-17T07:17:01.182Z,84.57
2018-12-17T07:18:01.171Z,84.85
2018-12-17T07:19:01.163Z,84.78
2018-12-17T07:20:01.151Z,84.78
2018-12-17T07:21:01.176Z,84.96
2018-12-17T07:22:11.590Z,84.78
2018-12-17T07:23:01.117Z,84.64
2018-12-17T07:24:01.198Z,84.32
2018-12-17T07:25:01.104Z,84.57
2018-12-17T07:26:01.093Z,84.68
2018-12-17T07:27:02.120Z,84.53
2018-12-17T07:28:01.069Z,84.64
2018-12-17T07:29:01.089Z,84.32
2018-12-17T07:30:01.047Z,84.68
2018-12-17T07:31:01.038Z,84.78
2018-12-17T07:32:01.034Z,84.89
2018-12-17T07:33:01.315Z,85.21
2018-12-17T07:34:01.009Z,85.28
2018-12-17T07:35:01.260Z,85.17
2018-12-17T07:36:00.992Z,84.96
2018-12-17T07:37:00.979Z,84.96
2018-12-17T07:38:01.017Z,85.06
2018-12-17T07:39:01.449Z,85.00
2018-12-17T07:40:00.952Z,84.89
2018-12-17T07:41:00.940Z,84.75
2018-12-17T07:42:00.936Z,85.10
2018-12-17T07:43:00.922Z,84.85
2018-12-17T07:44:00.902Z,84.85
2018-12-17T07:45:01.349Z,85.38
2018-12-17T07:46:00.882Z,85.06
2018-12-17T07:47:00.881Z,85.06
2018-12-17T07:48:00.876Z,85.17
2018-12-17T07:49:00.851Z,84.32
2018-12-17T07:50:00.853Z,85.17
2018-12-17T07:51:01.639Z,85.06
2018-12-17T07:52:00.826Z,84.96
2018-12-17T07:53:10.756Z,84.96
2018-12-17T07:54:00.810Z,85.17
2018-12-17T07:55:00.797Z,85.53
2018-12-17T07:56:00.780Z,85.28
2018-12-17T07:57:00.814Z,85.74
2018-12-17T07:58:00.768Z,85.21
2018-12-17T07:59:00.760Z,85.91
2018-12-17T08:00:00.744Z,86.17
2018-12-17T08:01:00.746Z,86.06
2018-12-17T08:02:00.741Z,85.17
2018-12-17T08:03:00.758Z,85.38
2018-12-17T08:04:00.704Z,85.74
2018-12-17T08:05:00.690Z,85.17
2018-12-17T08:06:00.701Z,85.60
2018-12-17T08:07:00.687Z,85.60
2018-12-17T08:08:00.674Z,85.49
2018-12-17T08:09:00.774Z,85.17
2018-12-17T08:10:00.643Z,85.60
2018-12-17T08:11:00.632Z,85.42
2018-12-17T08:12:00.623Z,85.42
2018-12-17T08:13:00.619Z,85.81
2018-12-17T08:14:00.604Z,85.28
2018-12-17T08:15:00.652Z,85.38
2018-12-17T08:16:00.595Z,86.34
2018-12-17T08:17:00.575Z,86.34
2018-12-17T08:18:00.564Z,85.91
2018-12-17T08:19:00.552Z,86.02
2018-12-17T08:20:00.553Z,85.91
2018-12-17T08:21:01.389Z,85.35
2018-12-17T08:22:00.518Z,85.49
2018-12-17T08:23:00.528Z,85.71
2018-12-17T08:24:13.128Z,86.66
2018-12-17T08:25:02.232Z,86.44
2018-12-17T08:26:00.483Z,86.13
2018-12-17T08:27:00.512Z,86.13
2018-12-17T08:28:00.459Z,86.02
2018-12-17T08:29:00.521Z,86.34
2018-12-17T08:30:03.879Z,86.13
2018-12-17T08:31:00.429Z,86.13
2018-12-17T08:32:00.512Z,85.81
2018-12-17T08:33:01.656Z,86.34
2018-12-17T08:34:00.404Z,86.70
2018-12-17T08:35:00.442Z,87.62
2018-12-17T08:36:00.389Z,87.62
2018-12-17T08:37:00.368Z,86.34
2018-12-17T08:38:00.365Z,86.44
2018-12-17T08:39:00.386Z,86.34
2018-12-17T08:40:00.338Z,86.44
2018-12-17T08:41:00.332Z,86.34
2018-12-17T08:42:00.337Z,86.13
2018-12-17T08:43:00.315Z,85.91
2018-12-17T08:44:00.306Z,86.24
2018-12-17T08:45:00.329Z,86.77
2018-12-17T08:46:00.282Z,86.62
2018-12-17T08:47:00.263Z,86.66
2018-12-17T08:48:00.253Z,86.13
2018-12-17T08:49:00.247Z,86.55
2018-12-17T08:50:00.294Z,86.24
2018-12-17T08:51:00.392Z,86.41
2018-12-17T08:52:00.216Z,86.77
2018-12-17T08:53:00.202Z,86.34
2018-12-17T08:54:00.194Z,86.87
2018-12-17T08:55:10.313Z,87.62
2018-12-17T08:56:00.176Z,87.19
2018-12-17T08:57:00.209Z,86.83
2018-12-17T08:58:00.156Z,86.24
2018-12-17T08:59:00.148Z,86.77
2018-12-17T09:00:00.143Z,87.62
2018-12-17T09:01:00.132Z,87.83
2018-12-17T09:02:00.113Z,87.58
2018-12-17T09:03:00.138Z,86.87
2018-12-17T09:04:00.099Z,87.40
2018-12-17T09:05:00.086Z,87.62
2018-12-17T09:06:00.681Z,87.58
2018-12-17T09:07:00.066Z,87.51
2018-12-17T09:08:00.069Z,87.30
2018-12-17T09:09:00.093Z,87.62
2018-12-17T09:10:00.040Z,87.47
2018-12-17T09:11:00.024Z,87.47
2018-12-17T09:12:00.016Z,87.58
2018-12-17T09:13:00.001Z,87.68
2018-12-17T09:14:00.859Z,87.15
2018-12-17T09:15:00.912Z,88.00
2018-12-17T09:15:59.971Z,86.83
2018-12-17T09:16:59.963Z,87.05
2018-12-17T09:17:59.952Z,86.87
2018-12-17T09:18:59.939Z,88.00
2018-12-17T09:19:59.943Z,87.79
2018-12-17T09:21:00.911Z,87.68
2018-12-17T09:21:59.907Z,87.79
2018-12-17T09:22:59.896Z,87.26
2018-12-17T09:23:59.905Z,87.90
2018-12-17T09:24:59.893Z,87.79
2018-12-17T09:26:10.405Z,87.93
2018-12-17T09:26:59.855Z,87.58
2018-12-17T09:27:59.853Z,87.58
2018-12-17T09:28:59.837Z,87.90
2018-12-17T09:29:59.824Z,87.05
2018-12-17T09:30:59.976Z,87.05
2018-12-17T09:31:59.845Z,87.22
2018-12-17T09:32:59.799Z,87.54
2018-12-17T09:33:59.800Z,86.58
2018-12-17T09:34:59.782Z,87.43
2018-12-17T09:35:59.769Z,87.43
2018-12-17T09:36:59.758Z,86.69
2018-12-17T09:37:59.797Z,87.12
2018-12-17T09:38:59.737Z,87.43
2018-12-17T09:39:59.728Z,87.43
2018-12-17T09:40:59.715Z,87.54
2018-12-17T09:41:59.703Z,86.58
2018-12-17T09:42:59.691Z,86.79
2018-12-17T09:43:59.718Z,87.68
2018-12-17T09:44:59.675Z,87.43
2018-12-17T09:45:59.673Z,87.71
2018-12-17T09:46:59.654Z,87.43
2018-12-17T09:47:59.644Z,87.32
2018-12-17T09:48:59.639Z,87.90
2018-12-17T09:49:59.640Z,87.68
2018-12-17T09:50:59.611Z,87.58
2018-12-17T09:51:59.607Z,87.47
2018-12-17T09:52:59.594Z,87.85
2018-12-17T09:53:59.587Z,87.75
2018-12-17T09:54:59.568Z,87.96
2018-12-17T09:55:59.575Z,87.65
2018-12-17T09:57:09.655Z,87.22
2018-12-17T09:57:59.540Z,87.22
2018-12-17T09:58:59.530Z,88.18
2018-12-17T09:59:59.520Z,88.11
2018-12-17T10:00:59.515Z,88.60
2018-12-17T10:01:59.538Z,88.11
2018-12-17T10:02:59.497Z,88.39
2018-12-17T10:03:59.482Z,88.18
2018-12-17T10:04:59.473Z,88.07
2018-12-17T10:05:59.463Z,87.85
2018-12-17T10:06:59.450Z,88.18
2018-12-17T10:07:59.937Z,88.07
2018-12-17T10:09:01.095Z,87.54
2018-12-17T10:09:59.521Z,87.65
2018-12-17T10:10:59.408Z,87.65
2018-12-17T10:11:59.401Z,87.54
2018-12-17T10:12:59.398Z,87.85
2018-12-17T10:13:59.431Z,87.82
2018-12-17T10:14:59.452Z,88.18
2018-12-17T10:15:59.363Z,87.54
2018-12-17T10:16:59.392Z,87.39
2018-12-17T10:17:59.338Z,87.29
2018-12-17T10:18:59.352Z,87.39
2018-12-17T10:19:59.349Z,87.04
2018-12-17T10:20:59.304Z,87.29
2018-12-17T10:21:59.302Z,87.39
2018-12-17T10:22:59.290Z,87.29
2018-12-17T10:23:59.281Z,87.50
2018-12-17T10:24:59.263Z,87.60
2018-12-17T10:25:59.283Z,87.07
2018-12-17T10:26:59.241Z,87.29
2018-12-17T10:29:18.685Z,87.39
2018-12-17T10:30:18.051Z,88.39
2018-12-17T10:31:18.044Z,88.49
2018-12-17T10:32:18.038Z,88.07
2018-12-17T10:33:18.022Z,87.85
2018-12-17T10:34:18.010Z,88.03
2018-12-17T10:35:18.791Z,88.13
2018-12-17T10:36:17.985Z,87.75
2018-12-17T10:37:17.980Z,88.18
2018-12-17T10:38:17.970Z,88.39
2018-12-17T10:39:17.951Z,88.49
2018-12-17T10:40:17.952Z,89.09
2018-12-17T10:41:17.946Z,88.88
2018-12-17T10:42:17.932Z,88.98
2018-12-17T10:43:17.913Z,89.09
2018-12-17T10:44:17.898Z,89.09
2018-12-17T10:45:17.892Z,88.49
2018-12-17T10:46:17.880Z,88.88
2018-12-17T10:47:17.916Z,88.45
2018-12-17T10:48:17.860Z,88.88
2018-12-17T10:49:17.852Z,88.49
2018-12-17T10:50:17.836Z,88.98
2018-12-17T10:51:17.825Z,89.13
2018-12-17T10:52:17.903Z,88.98
2018-12-17T10:53:18.189Z,88.88
2018-12-17T10:54:17.793Z,88.67
2018-12-17T10:55:17.795Z,88.45
2018-12-17T10:56:17.773Z,88.81
2018-12-17T10:57:17.762Z,88.56
2018-12-17T10:58:17.800Z,89.84
2018-12-17T10:59:25.244Z,89.73
2018-12-17T11:00:17.729Z,89.73
2018-12-17T11:01:17.739Z,89.62
2018-12-17T11:02:17.716Z,89.79
2018-12-17T11:03:17.701Z,88.98
2018-12-17T11:04:17.697Z,88.67
2018-12-17T11:05:17.725Z,89.09
2018-12-17T11:06:17.679Z,89.69
2018-12-17T11:07:17.660Z,89.20
2018-12-17T11:08:17.655Z,88.98
2018-12-17T11:09:17.636Z,89.84
2018-12-17T11:10:17.628Z,89.94
2018-12-17T11:11:17.640Z,90.16
2018-12-17T11:12:17.607Z,89.84
2018-12-17T11:13:17.613Z,89.73
2018-12-17T11:14:17.605Z,89.37
2018-12-17T11:15:17.571Z,88.95
2018-12-17T11:16:17.567Z,89.84
2018-12-17T11:17:17.625Z,89.51
2018-12-17T11:18:17.542Z,89.69
2018-12-17T11:19:17.543Z,89.73
2018-12-17T11:20:17.525Z,90.16
2018-12-17T11:21:17.514Z,89.84
2018-12-17T11:22:17.502Z,89.51
2018-12-17T11:23:18.152Z,89.73
2018-12-17T11:24:17.484Z,89.73
2018-12-17T11:25:17.479Z,89.73
2018-12-17T11:26:17.457Z,89.84
2018-12-17T11:27:17.446Z,89.77
2018-12-17T11:28:17.497Z,89.73
2018-12-17T11:29:17.464Z,90.05
2018-12-17T11:30:28.070Z,90.37
2018-12-17T11:31:17.407Z,89.94
2018-12-17T11:32:17.400Z,90.47
2018-12-17T11:33:17.389Z,90.37
2018-12-17T11:34:17.380Z,89.58
2018-12-17T11:35:18.207Z,89.51
2018-12-17T11:36:17.355Z,89.73
2018-12-17T11:37:17.341Z,89.94
2018-12-17T11:38:17.340Z,89.58
2018-12-17T11:39:17.325Z,89.73
2018-12-17T11:40:17.316Z,89.84
2018-12-17T11:41:17.338Z,89.94
2018-12-17T11:42:17.289Z,89.84
2018-12-17T11:43:17.293Z,89.94
2018-12-17T11:44:17.271Z,90.16
2018-12-17T11:45:17.264Z,89.84
2018-12-17T11:46:17.257Z,89.94
2018-12-17T11:47:17.290Z,89.48
2018-12-17T11:48:17.227Z,89.94
2018-12-17T11:49:17.234Z,89.84
2018-12-17T11:50:17.210Z,89.94
2018-12-17T11:51:17.201Z,89.84
2018-12-17T11:52:17.187Z,90.16
2018-12-17T11:53:17.224Z,89.48
2018-12-17T11:54:17.167Z,89.94
2018-12-17T11:55:17.163Z,90.16
2018-12-17T11:56:17.145Z,90.43
2018-12-17T11:57:17.133Z,89.73
2018-12-17T11:58:17.125Z,89.62
2018-12-17T11:59:17.160Z,89.69
2018-12-17T12:00:17.101Z,89.79
2018-12-17T12:01:27.312Z,89.69
2018-12-17T12:02:17.089Z,89.69
2018-12-17T12:03:17.072Z,90.16
2018-12-17T12:04:17.061Z,89.73
2018-12-17T12:05:17.092Z,90.05
2018-12-17T12:06:17.049Z,89.84
2018-12-17T12:07:17.032Z,90.05
2018-12-17T12:08:17.034Z,90.09
2018-12-17T12:09:18.460Z,89.73
2018-12-17T12:10:16.998Z,89.94
2018-12-17T12:11:17.039Z,89.73
2018-12-17T12:12:16.982Z,89.62
2018-12-17T12:13:17.030Z,89.94
2018-12-17T12:14:16.959Z,90.37
2018-12-17T12:15:16.955Z,91.11
2018-12-17T12:16:16.935Z,90.37
2018-12-17T12:17:16.999Z,89.94
2018-12-17T12:18:16.922Z,89.94
2018-12-17T12:19:16.910Z,89.73
2018-12-17T12:20:16.900Z,90.01
2018-12-17T12:21:16.886Z,89.51
2018-12-17T12:22:16.879Z,89.31
2018-12-17T12:23:16.918Z,89.90
2018-12-17T12:24:16.859Z,89.73
2018-12-17T12:25:16.847Z,89.31
2018-12-17T12:26:16.840Z,90.05
2018-12-17T12:27:16.827Z,90.05
2018-12-17T12:28:16.812Z,90.26
2018-12-17T12:29:16.846Z,91.32
2018-12-17T12:30:16.794Z,91.32
2018-12-17T12:31:16.781Z,91.00
2018-12-17T12:32:27.079Z,91.64
2018-12-17T12:33:16.762Z,91.00
2018-12-17T12:34:16.770Z,91.43
2018-12-17T12:35:16.780Z,91.11
2018-12-17T12:36:16.733Z,91.68
2018-12-17T12:37:16.723Z,91.58
2018-12-17T12:38:16.706Z,91.85
2018-12-17T12:39:16.703Z,91.75
2018-12-17T12:40:16.694Z,91.47
2018-12-17T12:41:16.719Z,91.53
2018-12-17T12:42:16.671Z,91.32
2018-12-17T12:43:16.657Z,91.32
2018-12-17T12:44:16.651Z,91.58
2018-12-17T12:45:16.643Z,91.79
2018-12-17T12:46:16.624Z,91.64
2018-12-17T12:47:16.777Z,91.75
2018-12-17T12:48:16.608Z,91.75
2018-12-17T12:49:16.597Z,91.32
2018-12-17T12:50:16.610Z,90.79
2018-12-17T12:51:16.586Z,90.90
2018-12-17T12:52:16.561Z,91.22
2018-12-17T12:53:16.727Z,91.32